createdAt,value
2022-11-15T00:01:19.035Z,39.17
2022-11-15T00:03:48.910Z,39.32
2022-11-15T00:06:16.911Z,39.34
2022-11-15T00:08:45.347Z,39.28
2022-11-15T00:11:14.428Z,38.79
2022-11-15T00:13:43.244Z,38.81
2022-11-15T00:16:11.513Z,39.27
2022-11-15T00:18:40.175Z,39.17
2022-11-15T00:21:12.195Z,39.03
2022-11-15T00:23:40.641Z,38.97
2022-11-15T00:26:09.330Z,39.17
2022-11-15T00:28:37.882Z,38.83
2022-11-15T00:31:07.532Z,38.73
2022-11-15T00:33:36.125Z,38.80
2022-11-15T00:36:05.642Z,38.72
2022-11-15T00:38:35.646Z,38.56
2022-11-15T00:41:09.049Z,38.85
2022-11-15T00:43:38.460Z,38.60
2022-11-15T00:46:07.050Z,38.53
2022-11-15T00:48:35.369Z,38.73
2022-11-15T00:51:03.817Z,38.72
2022-11-15T00:53:32.616Z,38.80
2022-11-15T00:56:02.333Z,38.67
2022-11-15T00:58:30.764Z,39.03
2022-11-15T01:00:58.875Z,38.98
2022-11-15T01:03:27.369Z,39.14
2022-11-15T01:05:55.626Z,39.18
2022-11-15T01:08:24.030Z,38.92
2022-11-15T01:10:52.091Z,38.92
2022-11-15T01:13:21.810Z,39.11
2022-11-15T01:15:49.790Z,39.23
2022-11-15T01:18:18.099Z,39.22
2022-11-15T01:20:46.303Z,39.37
2022-11-15T01:23:14.669Z,39.18
2022-11-15T01:25:42.796Z,39.16
2022-11-15T01:28:11.206Z,39.25
2022-11-15T01:30:40.710Z,39.35
2022-11-15T01:33:09.111Z,39.52
2022-11-15T01:35:40.852Z,39.01
2022-11-15T01:38:09.539Z,39.39
2022-11-15T01:40:37.539Z,39.58
2022-11-15T01:43:21.355Z,38.57
2022-11-15T01:45:54.619Z,39.10
2022-11-15T01:48:23.278Z,39.60
2022-11-15T01:50:52.117Z,39.61
2022-11-15T01:53:22.273Z,39.70
2022-11-15T01:55:50.321Z,40.08
2022-11-15T01:58:18.974Z,39.85
2022-11-15T02:00:48.837Z,39.83
2022-11-15T02:03:18.831Z,39.81
2022-11-15T02:05:46.820Z,39.96
2022-11-15T02:08:21.203Z,40.16
2022-11-15T02:10:49.320Z,40.21
2022-11-15T02:13:18.660Z,40.17
2022-11-15T02:15:55.314Z,40.06
2022-11-15T02:18:30.283Z,40.14
2022-11-15T02:21:08.424Z,39.72
2022-11-15T02:24:18.280Z,39.37
2022-11-15T02:27:33.057Z,39.11
2022-11-15T02:30:21.161Z,39.73
2022-11-15T02:32:52.890Z,39.86
2022-11-15T02:35:28.457Z,39.77
2022-11-15T02:37:59.222Z,39.92
2022-11-15T02:40:36.390Z,39.75
2022-11-15T02:43:27.654Z,39.85
2022-11-15T02:45:59.155Z,38.66
2022-11-15T02:48:28.168Z,39.79
2022-11-15T02:50:56.677Z,40.15
2022-11-15T02:53:26.666Z,40.05
2022-11-15T02:55:56.207Z,40.01
2022-11-15T02:58:37.635Z,39.84
2022-11-15T03:01:14.565Z,39.68
2022-11-15T03:03:51.407Z,39.73
2022-11-15T03:06:27.751Z,39.63
2022-11-15T03:09:04.424Z,39.49
2022-11-15T03:11:35.076Z,40.04
2022-11-15T03:14:07.196Z,40.05
2022-11-15T03:16:39.728Z,39.73
2022-11-15T03:19:12.799Z,39.83
2022-11-15T03:21:42.322Z,39.97
2022-11-15T03:24:11.005Z,40.15
2022-11-15T03:26:41.561Z,39.60
2022-11-15T03:29:14.031Z,39.35
2022-11-15T03:31:51.191Z,39.47
2022-11-15T03:34:26.742Z,39.37
2022-11-15T03:36:55.292Z,40.03
2022-11-15T03:39:24.270Z,39.78
2022-11-15T03:41:59.458Z,39.47
2022-11-15T03:44:37.293Z,39.53
2022-11-15T03:47:11.187Z,39.30
2022-11-15T03:49:41.685Z,39.55
2022-11-15T03:52:12.321Z,39.64
2022-11-15T03:54:50.298Z,39.24
2022-11-15T03:57:18.847Z,40.04
2022-11-15T03:59:46.881Z,40.11
2022-11-15T04:02:17.628Z,40.30
2022-11-15T04:04:45.693Z,40.47
2022-11-15T04:07:14.571Z,40.13
2022-11-15T04:09:57.223Z,40.41
2022-11-15T04:12:31.841Z,40.21
2022-11-15T04:15:19.130Z,40.07
2022-11-15T04:17:50.422Z,40.02
2022-11-15T04:20:37.518Z,40.11
2022-11-15T04:23:25.217Z,39.94
2022-11-15T04:25:54.402Z,40.09
2022-11-15T04:28:23.005Z,40.03
2022-11-15T04:30:51.049Z,39.63
2022-11-15T04:33:21.128Z,39.78
2022-11-15T04:36:09.479Z,40.16
2022-11-15T04:38:38.643Z,40.09
2022-11-15T04:41:06.809Z,40.07
2022-11-15T04:43:35.444Z,39.93
2022-11-15T04:46:03.600Z,39.83
2022-11-15T04:48:33.490Z,39.38
2022-11-15T04:51:01.578Z,39.55
2022-11-15T04:53:30.416Z,39.45
2022-11-15T04:55:58.891Z,39.70
2022-11-15T04:58:27.217Z,39.57
2022-11-15T05:00:55.359Z,39.33
2022-11-15T05:03:41.393Z,39.52
2022-11-15T05:06:10.987Z,39.31
2022-11-15T05:08:39.409Z,39.65
2022-11-15T05:11:07.859Z,39.72
2022-11-15T05:13:36.254Z,39.61
2022-11-15T05:16:04.486Z,39.64
2022-11-15T05:18:32.906Z,39.37
2022-11-15T05:21:05.498Z,39.05
2022-11-15T05:23:35.646Z,39.31
2022-11-15T05:26:08.988Z,39.50
2022-11-15T05:28:38.210Z,39.25
2022-11-15T05:31:07.983Z,39.07
2022-11-15T05:33:36.902Z,39.02
2022-11-15T05:36:07.617Z,38.59
2022-11-15T05:38:37.704Z,38.52
2022-11-15T05:41:06.743Z,38.86
2022-11-15T05:43:37.668Z,38.56
2022-11-15T05:46:07.032Z,38.54
2022-11-15T05:48:36.613Z,38.44
2022-11-15T05:51:05.050Z,38.97
2022-11-15T05:53:34.007Z,38.94
2022-11-15T05:56:04.801Z,38.67
2022-11-15T05:58:33.295Z,39.04
2022-11-15T06:01:01.954Z,39.09
2022-11-15T06:03:30.717Z,39.09
2022-11-15T06:05:59.215Z,39.11
2022-11-15T06:08:27.581Z,39.34
2022-11-15T06:10:55.898Z,39.42
2022-11-15T06:13:25.700Z,39.43
2022-11-15T06:15:57.578Z,39.12
2022-11-15T06:18:26.035Z,39.50
2022-11-15T06:20:54.224Z,39.74
2022-11-15T06:23:22.594Z,39.58
2022-11-15T06:25:50.858Z,39.61
2022-11-15T06:28:19.155Z,39.35
2022-11-15T06:30:52.987Z,39.29
2022-11-15T06:33:21.803Z,39.26
2022-11-15T06:35:49.962Z,39.06
2022-11-15T06:38:18.429Z,38.94
2022-11-15T06:40:46.434Z,38.71
2022-11-15T06:43:15.725Z,38.83
2022-11-15T06:45:43.857Z,38.86
2022-11-15T06:48:13.649Z,38.54
2022-11-15T06:50:41.683Z,38.48
2022-11-15T06:53:10.157Z,38.49
2022-11-15T06:55:39.772Z,38.45
2022-11-15T06:58:08.156Z,38.25
2022-11-15T07:00:36.250Z,38.24
2022-11-15T07:03:05.097Z,37.83
2022-11-15T07:05:34.492Z,37.32
2022-11-15T07:08:03.013Z,37.34
2022-11-15T07:10:31.089Z,36.83
2022-11-15T07:12:59.469Z,36.86
2022-11-15T07:15:28.029Z,36.96
2022-11-15T07:17:56.568Z,36.71
2022-11-15T07:20:24.812Z,36.40
2022-11-15T07:23:01.972Z,35.71
2022-11-15T07:25:30.077Z,35.00
2022-11-15T07:27:58.907Z,34.16
2022-11-15T07:30:27.905Z,33.24
2022-11-15T07:32:56.468Z,32.39
2022-11-15T07:35:24.984Z,31.50
2022-11-15T07:37:58.800Z,28.86
2022-11-15T07:40:27.431Z,27.78
2022-11-15T07:43:01.689Z,24.63
2022-11-15T07:45:29.750Z,22.90
2022-11-15T07:47:58.385Z,23.41
2022-11-15T07:50:26.484Z,24.01
2022-11-15T07:53:00.468Z,23.28
2022-11-15T07:55:30.726Z,22.85
2022-11-15T07:58:03.409Z,21.56
2022-11-15T08:00:31.922Z,20.41
2022-11-15T08:03:04.653Z,18.15
2022-11-15T08:05:33.188Z,17.77
2022-11-15T08:08:03.058Z,17.11
2022-11-15T08:10:34.225Z,16.94
2022-11-15T08:13:07.699Z,16.59
2022-11-15T08:15:37.028Z,16.08
2022-11-15T08:18:07.167Z,15.86
2022-11-15T08:20:35.252Z,15.69
2022-11-15T08:23:06.448Z,14.73
2022-11-15T08:25:35.916Z,14.66
2022-11-15T08:28:05.676Z,14.39
2022-11-15T08:30:37.366Z,14.71
2022-11-15T08:33:06.087Z,13.88
2022-11-15T08:35:34.214Z,13.42
2022-11-15T08:38:04.135Z,13.49
2022-11-15T08:40:32.250Z,13.63
2022-11-15T08:43:03.659Z,12.86
2022-11-15T08:45:32.071Z,13.13
2022-11-15T08:48:03.120Z,12.25
2022-11-15T08:50:31.167Z,12.31
2022-11-15T08:52:59.792Z,11.80
2022-11-15T08:55:29.484Z,11.70
2022-11-15T08:57:59.314Z,11.21
2022-11-15T09:00:27.587Z,11.39
2022-11-15T09:02:55.984Z,11.75
2022-11-15T09:05:24.125Z,11.74
2022-11-15T09:07:55.152Z,11.35
2022-11-15T09:10:23.303Z,11.78
2022-11-15T09:12:53.193Z,10.82
2022-11-15T09:15:21.882Z,10.35
2022-11-15T09:17:50.307Z,10.29
2022-11-15T09:20:18.710Z,9.99
2022-11-15T09:22:47.213Z,9.80
2022-11-15T09:25:15.758Z,9.49
2022-11-15T09:27:44.095Z,9.01
2022-11-15T09:30:14.766Z,8.25
2022-11-15T09:32:43.142Z,8.17
2022-11-15T09:35:11.380Z,8.13
2022-11-15T09:37:39.871Z,7.61
2022-11-15T09:40:10.568Z,7.85
2022-11-15T09:42:51.145Z,7.24
2022-11-15T09:45:23.172Z,7.00
2022-11-15T09:48:01.843Z,6.45
2022-11-15T09:50:36.665Z,6.61
2022-11-15T09:53:05.298Z,6.99
2022-11-15T09:55:39.916Z,6.39
2022-11-15T09:58:16.182Z,6.74
2022-11-15T10:00:49.708Z,6.54
2022-11-15T10:03:20.431Z,6.69
2022-11-15T10:05:50.822Z,6.27
2022-11-15T10:08:23.544Z,5.51
2022-11-15T10:11:09.616Z,6.11
2022-11-15T10:13:42.712Z,5.59
2022-11-15T10:16:26.960Z,6.18
2022-11-15T10:19:02.333Z,6.63
2022-11-15T10:21:36.628Z,6.05
2022-11-15T10:24:12.840Z,5.84
2022-11-15T10:26:41.389Z,5.83
2022-11-15T10:29:09.685Z,5.57
2022-11-15T10:31:41.755Z,5.69
2022-11-15T10:34:15.152Z,5.94
2022-11-15T10:36:50.288Z,5.67
2022-11-15T10:39:18.907Z,5.49
2022-11-15T10:41:47.162Z,5.53
2022-11-15T10:44:29.300Z,5.07
2022-11-15T10:47:24.056Z,5.26
2022-11-15T10:50:00.575Z,5.69
2022-11-15T10:52:29.529Z,5.03
2022-11-15T10:54:59.862Z,5.11
2022-11-15T10:57:29.801Z,6.47
2022-11-15T11:00:00.749Z,7.31
2022-11-15T11:02:31.564Z,7.94
2022-11-15T11:05:00.778Z,9.49
2022-11-15T11:07:30.520Z,9.98
2022-11-15T11:10:00.574Z,10.75
2022-11-15T11:12:33.505Z,10.69
2022-11-15T11:15:03.490Z,11.26
2022-11-15T11:17:43.132Z,11.46
2022-11-15T11:20:19.597Z,12.59
2022-11-15T11:23:00.527Z,13.03
2022-11-15T11:25:35.390Z,13.83
2022-11-15T11:28:25.780Z,14.50
2022-11-15T11:31:02.904Z,15.48
2022-11-15T11:33:34.995Z,16.03
2022-11-15T11:36:12.183Z,16.50
2022-11-15T11:38:49.525Z,16.56
2022-11-15T11:41:26.543Z,16.72
2022-11-15T11:44:01.932Z,17.14
2022-11-15T11:46:50.625Z,16.93
2022-11-15T11:49:24.119Z,16.93
2022-11-15T11:51:57.628Z,16.93
2022-11-15T11:54:28.984Z,17.18
2022-11-15T11:56:59.486Z,17.31
2022-11-15T11:59:34.371Z,17.49
2022-11-15T12:02:05.044Z,17.75
2022-11-15T12:04:39.948Z,18.05
2022-11-15T12:07:13.465Z,18.58
2022-11-15T12:09:43.977Z,18.57
2022-11-15T12:12:17.709Z,18.62
2022-11-15T12:14:49.049Z,18.72
2022-11-15T12:17:20.173Z,19.11
2022-11-15T12:19:49.661Z,19.33
2022-11-15T12:22:22.099Z,19.61
2022-11-15T12:24:54.588Z,19.70
2022-11-15T12:27:31.555Z,19.78
2022-11-15T12:30:02.735Z,20.22
2022-11-15T12:32:33.902Z,21.11
2022-11-15T12:35:04.818Z,21.28
2022-11-15T12:37:46.851Z,20.53
2022-11-15T12:40:35.421Z,20.66
2022-11-15T12:43:42.804Z,20.97
2022-11-15T12:46:15.811Z,21.15
2022-11-15T12:48:50.311Z,21.21
2022-11-15T12:51:22.501Z,21.08
2022-11-15T12:53:51.296Z,21.79
2022-11-15T12:56:26.663Z,21.27
2022-11-15T12:58:57.874Z,21.89
2022-11-15T13:02:00.404Z,21.38
2022-11-15T13:04:31.141Z,21.98
2022-11-15T13:07:02.358Z,22.21
2022-11-15T13:09:53.519Z,21.85
2022-11-15T13:12:57.016Z,22.12
2022-11-15T13:15:43.011Z,22.13
2022-11-15T13:18:35.345Z,22.42
2022-11-15T13:21:27.261Z,22.76
2022-11-15T13:23:57.650Z,22.87
2022-11-15T13:26:26.615Z,22.98
2022-11-15T13:28:56.480Z,23.25
2022-11-15T13:31:30.998Z,22.92
2022-11-15T13:34:02.516Z,23.39
2022-11-15T13:36:34.293Z,23.28
2022-11-15T13:39:05.651Z,23.47
2022-11-15T13:41:35.479Z,23.70
2022-11-15T13:44:04.908Z,23.97
2022-11-15T13:46:34.767Z,24.08
2022-11-15T13:49:04.347Z,24.04
2022-11-15T13:51:37.904Z,24.00
2022-11-15T13:54:14.974Z,24.14
2022-11-15T13:56:45.434Z,24.58
2022-11-15T13:59:17.892Z,24.14
2022-11-15T14:01:46.501Z,24.70
2022-11-15T14:04:16.255Z,24.91
2022-11-15T14:06:49.572Z,24.74
2022-11-15T14:09:36.625Z,24.40
2022-11-15T14:12:24.739Z,24.37
2022-11-15T14:14:53.191Z,25.10
2022-11-15T14:17:24.754Z,25.10
2022-11-15T14:19:53.401Z,24.19
2022-11-15T14:22:23.678Z,25.14
2022-11-15T14:25:17.333Z,25.07
2022-11-15T14:27:47.404Z,25.78
2022-11-15T14:30:16.973Z,26.15
2022-11-15T14:32:47.625Z,26.01
2022-11-15T14:35:17.573Z,26.43
2022-11-15T14:37:46.030Z,26.68
2022-11-15T14:40:18.255Z,26.57
2022-11-15T14:42:47.849Z,26.75
2022-11-15T14:45:18.127Z,26.44
2022-11-15T14:47:46.765Z,26.84
2022-11-15T14:50:15.996Z,26.80
2022-11-15T14:52:44.788Z,27.19
2022-11-15T14:55:19.664Z,26.82
2022-11-15T14:57:48.180Z,27.04
2022-11-15T15:00:17.123Z,27.32
2022-11-15T15:02:47.244Z,27.42
2022-11-15T15:05:17.329Z,27.08
2022-11-15T15:07:45.850Z,27.56
2022-11-15T15:10:38.947Z,27.54
2022-11-15T15:13:05.627Z,27.54
2022-11-15T15:15:35.206Z,27.88
2022-11-15T15:18:05.667Z,28.05
2022-11-15T15:20:34.095Z,28.16
2022-11-15T15:23:02.448Z,28.48
2022-11-15T15:25:31.430Z,28.67
2022-11-15T15:28:00.013Z,28.55
2022-11-15T15:30:31.193Z,28.23
2022-11-15T15:32:59.374Z,27.55
2022-11-15T15:35:31.342Z,28.16
2022-11-15T15:37:59.954Z,28.69
2022-11-15T15:40:30.648Z,28.69
2022-11-15T15:42:59.025Z,28.83
2022-11-15T15:45:29.277Z,28.77
2022-11-15T15:47:57.997Z,28.92
2022-11-15T15:50:27.617Z,28.90
2022-11-15T15:52:57.105Z,29.19
2022-11-15T15:55:25.740Z,29.02
2022-11-15T15:57:54.393Z,29.17
2022-11-15T16:00:24.570Z,29.06
2022-11-15T16:02:54.888Z,29.28
2022-11-15T16:05:23.678Z,29.76
2022-11-15T16:07:52.377Z,29.73
2022-11-15T16:10:24.078Z,29.59
2022-11-15T16:12:53.187Z,30.26
2022-11-15T16:15:22.156Z,30.32
2022-11-15T16:17:52.536Z,30.48
2022-11-15T16:20:32.285Z,29.93
2022-11-15T16:23:05.781Z,30.55
2022-11-15T16:25:39.460Z,30.53
2022-11-15T16:28:15.573Z,30.22
2022-11-15T16:30:43.711Z,30.96
2022-11-15T16:33:13.988Z,30.86
2022-11-15T16:35:43.560Z,30.65
2022-11-15T16:38:15.914Z,30.66
2022-11-15T16:40:44.445Z,31.09
2022-11-15T16:43:13.222Z,30.94
2022-11-15T16:45:41.409Z,31.45
2022-11-15T16:48:21.648Z,30.58
2022-11-15T16:50:51.330Z,30.96
2022-11-15T16:53:19.742Z,31.19
2022-11-15T16:55:48.016Z,31.20
2022-11-15T16:58:16.367Z,31.27
2022-11-15T17:00:44.559Z,31.49
2022-11-15T17:03:13.100Z,31.46
2022-11-15T17:05:41.316Z,31.27
2022-11-15T17:08:11.017Z,31.17
2022-11-15T17:10:41.279Z,31.18
2022-11-15T17:13:10.244Z,31.06
2022-11-15T17:15:38.401Z,31.27
2022-11-15T17:18:07.575Z,31.24
2022-11-15T17:20:35.661Z,31.16
2022-11-15T17:23:04.006Z,31.12
2022-11-15T17:25:33.475Z,30.96
2022-11-15T17:28:02.085Z,31.18
2022-11-15T17:30:30.317Z,31.54
2022-11-15T17:32:58.610Z,31.62
2022-11-15T17:35:29.740Z,31.51
2022-11-15T17:37:57.980Z,30.30
2022-11-15T17:40:26.311Z,31.38
2022-11-15T17:42:57.138Z,31.27
2022-11-15T17:45:25.243Z,31.46
2022-11-15T17:47:53.886Z,31.64
2022-11-15T17:50:22.023Z,31.85
2022-11-15T17:52:50.391Z,32.06
2022-11-15T17:55:18.593Z,32.38
2022-11-15T17:57:46.994Z,32.59
2022-11-15T18:00:19.684Z,32.34
2022-11-15T18:02:48.227Z,32.96
2022-11-15T18:05:16.387Z,32.83
2022-11-15T18:07:44.885Z,32.30
2022-11-15T18:10:13.040Z,32.47
2022-11-15T18:12:42.391Z,32.52
2022-11-15T18:15:10.735Z,32.96
2022-11-15T18:17:40.542Z,32.63
2022-11-15T18:20:10.211Z,32.94
2022-11-15T18:22:38.631Z,33.25
2022-11-15T18:25:07.382Z,32.99
2022-11-15T18:27:35.828Z,32.97
2022-11-15T18:30:03.875Z,32.70
2022-11-15T18:32:32.356Z,33.05
2022-11-15T18:35:01.959Z,32.64
2022-11-15T18:37:30.972Z,33.14
2022-11-15T18:39:59.030Z,32.95
2022-11-15T18:42:27.517Z,33.12
2022-11-15T18:44:55.671Z,33.04
2022-11-15T18:47:24.112Z,33.02
2022-11-15T18:49:52.281Z,32.60
2022-11-15T18:52:22.723Z,32.49
2022-11-15T18:54:50.929Z,32.46
2022-11-15T18:57:19.363Z,32.08
2022-11-15T18:59:47.500Z,31.97
2022-11-15T19:02:15.869Z,31.99
2022-11-15T19:04:43.971Z,32.05
2022-11-15T19:07:12.383Z,32.22
2022-11-15T19:09:41.984Z,31.78
2022-11-15T19:12:10.295Z,32.01
2022-11-15T19:14:38.533Z,32.04
2022-11-15T19:17:07.071Z,31.86
2022-11-15T19:19:35.164Z,31.78
2022-11-15T19:22:03.582Z,31.80
2022-11-15T19:24:31.908Z,32.02
2022-11-15T19:27:01.719Z,31.34
2022-11-15T19:29:29.934Z,31.74
2022-11-15T19:31:58.455Z,31.99
2022-11-15T19:34:26.603Z,32.07
2022-11-15T19:36:55.264Z,32.22
2022-11-15T19:39:23.383Z,32.02
2022-11-15T19:41:51.879Z,32.11
2022-11-15T19:44:22.858Z,31.99
2022-11-15T19:46:51.296Z,32.05
2022-11-15T19:49:19.789Z,32.30
2022-11-15T19:51:48.563Z,32.52
2022-11-15T19:54:17.371Z,32.54
2022-11-15T19:56:45.775Z,32.38
2022-11-15T19:59:14.363Z,32.34
2022-11-15T20:01:44.221Z,32.83
2022-11-15T20:04:12.350Z,32.98
2022-11-15T20:06:42.819Z,33.11
2022-11-15T20:09:13.894Z,32.54
2022-11-15T20:11:42.213Z,31.39
2022-11-15T20:14:11.774Z,32.45
2022-11-15T20:16:40.501Z,32.62
2022-11-15T20:19:10.064Z,32.44
2022-11-15T20:21:38.478Z,32.45
2022-11-15T20:24:07.678Z,32.44
2022-11-15T20:26:36.122Z,32.63
2022-11-15T20:29:04.331Z,32.82
2022-11-15T20:31:32.901Z,32.80
2022-11-15T20:34:01.296Z,32.76
2022-11-15T20:36:31.221Z,32.68
2022-11-15T20:39:00.268Z,32.61
2022-11-15T20:41:28.725Z,32.70
2022-11-15T20:43:56.903Z,32.88
2022-11-15T20:46:25.296Z,32.90
2022-11-15T20:48:53.427Z,33.18
2022-11-15T20:51:21.911Z,32.80
2022-11-15T20:53:51.538Z,32.59
2022-11-15T20:56:21.038Z,32.86
2022-11-15T20:58:50.530Z,32.60
2022-11-15T21:01:23.753Z,32.41
2022-11-15T21:03:52.725Z,32.63
2022-11-15T21:06:21.519Z,32.51
2022-11-15T21:09:09.136Z,32.24
2022-11-15T21:11:55.682Z,32.36
2022-11-15T21:14:23.940Z,32.23
2022-11-15T21:16:52.336Z,32.32
2022-11-15T21:19:25.702Z,32.46
2022-11-15T21:21:56.375Z,32.30
2022-11-15T21:24:26.847Z,32.08
2022-11-15T21:26:55.894Z,32.22
2022-11-15T21:29:24.065Z,32.19
2022-11-15T21:31:53.339Z,31.97
2022-11-15T21:34:21.926Z,32.26
2022-11-15T21:36:50.374Z,32.02
2022-11-15T21:39:18.425Z,32.06
2022-11-15T21:41:48.111Z,31.62
2022-11-15T21:44:16.185Z,31.60
2022-11-15T21:46:44.604Z,31.92
2022-11-15T21:49:12.841Z,31.87
2022-11-15T21:51:41.279Z,31.89
2022-11-15T21:54:09.488Z,31.86
2022-11-15T21:56:38.323Z,31.98
2022-11-15T21:59:07.925Z,32.06
2022-11-15T22:01:53.965Z,32.21
2022-11-15T22:04:24.141Z,31.80
2022-11-15T22:06:52.853Z,31.84
2022-11-15T22:09:21.076Z,32.19
2022-11-15T22:11:49.528Z,32.26
2022-11-15T22:14:19.203Z,32.03
2022-11-15T22:16:47.637Z,32.43
2022-11-15T22:19:15.884Z,32.19
2022-11-15T22:21:44.209Z,32.25
2022-11-15T22:24:12.654Z,32.29
2022-11-15T22:26:41.104Z,32.28
2022-11-15T22:29:09.174Z,32.55
2022-11-15T22:31:39.103Z,31.83
2022-11-15T22:34:07.171Z,32.18
2022-11-15T22:36:52.300Z,32.38
2022-11-15T22:39:23.861Z,32.11
2022-11-15T22:41:53.507Z,32.17
2022-11-15T22:44:22.236Z,32.38
2022-11-15T22:46:52.052Z,32.42
2022-11-15T22:49:20.132Z,32.63
2022-11-15T22:51:51.593Z,32.76
2022-11-15T22:54:19.704Z,32.45
2022-11-15T22:56:48.538Z,32.62
2022-11-15T22:59:16.716Z,32.99
2022-11-15T23:01:45.197Z,32.43
2022-11-15T23:04:14.628Z,32.43
2022-11-15T23:06:43.180Z,32.84
2022-11-15T23:09:11.518Z,32.50
2022-11-15T23:11:57.551Z,32.51
2022-11-15T23:14:25.854Z,32.38
2022-11-15T23:16:54.287Z,32.20
2022-11-15T23:19:24.128Z,31.84
2022-11-15T23:22:10.218Z,32.24
2022-11-15T23:24:38.487Z,32.38
2022-11-15T23:27:08.648Z,32.51
2022-11-15T23:29:58.464Z,32.67
2022-11-15T23:32:44.611Z,32.77
2022-11-15T23:35:14.154Z,32.59
2022-11-15T23:37:42.615Z,32.47
2022-11-15T23:40:12.396Z,32.54
2022-11-15T23:42:40.789Z,32.78
2022-11-15T23:45:09.467Z,32.73
2022-11-15T23:47:37.880Z,32.75
2022-11-15T23:50:06.840Z,32.48
2022-11-15T23:52:36.563Z,32.41
2022-11-15T23:55:05.025Z,32.71
2022-11-15T23:57:33.373Z,32.88
